createdAt,value
2023-06-04T00:00:30.890Z,1.60
2023-06-04T00:05:27.219Z,1.75
2023-06-04T00:10:23.572Z,1.58
2023-06-04T00:15:20.203Z,1.13
2023-06-04T00:20:16.581Z,1.33
2023-06-04T00:25:12.982Z,1.20
2023-06-04T00:30:09.896Z,1.52
2023-06-04T00:35:06.824Z,1.50
2023-06-04T00:40:03.455Z,1.00
2023-06-04T00:44:59.893Z,1.10
2023-06-04T00:49:59.416Z,1.15
2023-06-04T00:54:55.815Z,1.08
2023-06-04T00:59:52.451Z,1.25
2023-06-04T01:05:12.708Z,1.50
2023-06-04T01:10:09.535Z,1.17
2023-06-04T01:15:07.261Z,0.90
2023-06-04T01:20:37.762Z,0.90
2023-06-04T01:25:42.542Z,0.80
2023-06-04T01:30:44.301Z,0.80
2023-06-04T01:35:41.143Z,0.88
2023-06-04T01:40:37.890Z,0.90
2023-06-04T01:45:34.503Z,1.23
2023-06-04T01:50:31.743Z,1.08
2023-06-04T01:55:30.587Z,0.90
2023-06-04T02:00:27.476Z,0.90
2023-06-04T02:05:24.031Z,0.82
2023-06-04T02:10:21.165Z,1.10
2023-06-04T02:15:17.528Z,1.00
2023-06-04T02:20:14.006Z,0.98
2023-06-04T02:25:10.509Z,0.75
2023-06-04T02:30:07.703Z,0.95
2023-06-04T02:35:05.000Z,1.00
2023-06-04T02:40:01.540Z,0.82
2023-06-04T02:44:57.955Z,0.77
2023-06-04T02:49:54.370Z,0.80
2023-06-04T02:54:50.722Z,1.00
2023-06-04T02:59:47.191Z,0.95
2023-06-04T03:04:43.690Z,1.00
2023-06-04T03:09:40.037Z,1.08
2023-06-04T03:14:36.469Z,0.77
2023-06-04T03:19:32.848Z,1.15
2023-06-04T03:24:29.275Z,1.30
2023-06-04T03:29:25.779Z,1.10
2023-06-04T03:34:25.851Z,0.98
2023-06-04T03:39:22.773Z,1.15
2023-06-04T03:44:20.583Z,1.30
2023-06-04T03:49:18.348Z,1.00
2023-06-04T03:54:17.695Z,0.80
2023-06-04T03:59:14.184Z,1.10
2023-06-04T04:04:10.768Z,1.08
2023-06-04T04:09:07.548Z,1.33
2023-06-04T04:14:03.922Z,0.90
2023-06-04T04:19:00.304Z,0.80
2023-06-04T04:23:56.884Z,1.08
2023-06-04T04:28:59.040Z,0.95
2023-06-04T04:33:58.586Z,0.77
2023-06-04T04:38:59.411Z,0.60
2023-06-04T04:44:06.543Z,0.90
2023-06-04T04:49:03.270Z,1.05
2023-06-04T04:54:03.384Z,0.80
2023-06-04T04:58:59.732Z,0.98
2023-06-04T05:03:56.262Z,1.10
2023-06-04T05:08:52.636Z,1.10
2023-06-04T05:13:49.177Z,0.90
2023-06-04T05:18:46.257Z,1.30
2023-06-04T05:23:43.379Z,1.17
2023-06-04T05:28:44.542Z,1.10
2023-06-04T05:33:41.474Z,1.20
2023-06-04T05:38:38.805Z,0.88
2023-06-04T05:43:35.350Z,1.08
2023-06-04T05:48:31.795Z,1.20
2023-06-04T05:53:28.166Z,1.20
2023-06-04T05:58:24.540Z,0.75
2023-06-04T06:03:21.390Z,0.90
2023-06-04T06:08:17.949Z,1.10
2023-06-04T06:13:14.717Z,1.17
2023-06-04T06:18:11.126Z,0.68
2023-06-04T06:23:08.306Z,1.00
2023-06-04T06:28:04.734Z,0.88
2023-06-04T06:33:01.647Z,1.10
2023-06-04T06:37:58.066Z,1.10
2023-06-04T06:42:54.603Z,0.95
2023-06-04T06:47:51.227Z,1.88
2023-06-04T06:52:47.642Z,0.90
2023-06-04T06:57:44.402Z,1.20
2023-06-04T07:02:40.987Z,1.33
2023-06-04T07:07:37.647Z,1.40
2023-06-04T07:12:34.134Z,1.08
2023-06-04T07:17:30.993Z,1.13
2023-06-04T07:22:27.625Z,0.75
2023-06-04T07:27:24.370Z,1.80
2023-06-04T07:32:20.816Z,0.88
2023-06-04T07:37:17.240Z,0.85
2023-06-04T07:42:14.627Z,1.25
2023-06-04T07:47:11.190Z,1.55
2023-06-04T07:52:08.164Z,2.13
2023-06-04T07:57:04.684Z,1.90
2023-06-04T08:02:01.291Z,1.27
2023-06-04T08:06:58.101Z,1.15
2023-06-04T08:11:54.457Z,1.13
2023-06-04T08:16:50.910Z,1.75
2023-06-04T08:21:48.260Z,1.15
2023-06-04T08:26:44.633Z,1.27
2023-06-04T08:31:41.453Z,1.20
2023-06-04T08:36:37.965Z,1.30
2023-06-04T08:41:50.323Z,1.60
2023-06-04T08:46:51.979Z,1.58
2023-06-04T08:51:48.508Z,1.30
2023-06-04T08:56:46.328Z,1.50
2023-06-04T09:01:45.378Z,1.48
2023-06-04T09:06:43.290Z,1.25
2023-06-04T09:11:50.266Z,1.17
2023-06-04T09:16:51.694Z,1.38
2023-06-04T09:21:55.746Z,1.20
2023-06-04T09:26:52.645Z,1.15
2023-06-04T09:31:59.379Z,1.50
2023-06-04T09:36:56.317Z,1.13
2023-06-04T09:42:03.241Z,1.00
2023-06-04T09:47:00.285Z,0.98
2023-06-04T09:51:56.773Z,1.05
2023-06-04T09:56:53.152Z,1.50
2023-06-04T10:01:50.435Z,1.25
2023-06-04T10:06:47.259Z,1.20
2023-06-04T10:11:54.085Z,1.33
2023-06-04T10:16:52.182Z,1.30
2023-06-04T10:21:48.855Z,1.50
2023-06-04T10:26:45.280Z,1.60
2023-06-04T10:31:42.507Z,1.40
2023-06-04T10:36:46.672Z,1.70
2023-06-04T10:41:43.177Z,1.50
2023-06-04T10:46:41.950Z,1.10
2023-06-04T10:51:38.829Z,1.50
2023-06-04T10:56:36.541Z,1.50
2023-06-04T11:01:33.269Z,1.50
2023-06-04T11:06:29.640Z,1.73
2023-06-04T11:11:26.131Z,1.20
2023-06-04T11:16:22.770Z,1.33
2023-06-04T11:21:19.379Z,1.30
2023-06-04T11:26:15.800Z,1.50
2023-06-04T11:31:12.949Z,1.17
2023-06-04T11:36:09.885Z,1.10
2023-06-04T11:41:07.912Z,1.20
2023-06-04T11:46:07.633Z,1.40
2023-06-04T11:51:11.264Z,1.10
2023-06-04T11:56:08.125Z,1.40
2023-06-04T12:01:04.834Z,0.90
2023-06-04T12:06:17.427Z,1.98
2023-06-04T12:11:27.641Z,1.00
2023-06-04T12:16:24.184Z,1.08
2023-06-04T12:21:27.564Z,0.90
2023-06-04T12:26:29.932Z,1.00
2023-06-04T12:31:26.325Z,1.20
2023-06-04T12:36:22.695Z,1.52
2023-06-04T12:41:19.053Z,1.00
2023-06-04T12:46:15.673Z,0.95
2023-06-04T12:51:12.248Z,0.90
2023-06-04T12:56:09.613Z,1.00
2023-06-04T13:01:06.890Z,1.27
2023-06-04T13:06:03.552Z,1.00
2023-06-04T13:11:00.244Z,1.10
2023-06-04T13:15:57.866Z,1.03
2023-06-04T13:20:54.283Z,1.05
2023-06-04T13:25:50.715Z,0.97
2023-06-04T13:30:47.444Z,0.80
2023-06-04T13:35:45.801Z,1.20
2023-06-04T13:40:44.011Z,0.70
2023-06-04T13:45:41.326Z,1.00
2023-06-04T13:55:35.209Z,0.80
2023-06-04T14:00:32.468Z,0.77
2023-06-04T14:10:25.466Z,0.73
2023-06-04T14:15:21.836Z,0.87
2023-06-04T14:20:18.255Z,0.63
2023-06-04T14:25:14.668Z,0.73
2023-06-04T14:30:11.612Z,0.80
2023-06-04T14:35:08.416Z,0.75
2023-06-04T14:40:05.945Z,0.77
2023-06-04T14:45:03.057Z,0.63
2023-06-04T14:54:55.925Z,1.10
2023-06-04T14:59:52.334Z,0.90
2023-06-04T15:04:48.810Z,0.70
2023-06-04T15:09:45.197Z,1.07
2023-06-04T15:14:41.698Z,0.87
2023-06-04T15:19:38.306Z,0.60
2023-06-04T15:24:34.668Z,0.73
2023-06-04T15:29:31.164Z,0.73
2023-06-04T15:34:27.509Z,0.90
2023-06-04T15:39:24.050Z,0.80
2023-06-04T15:44:20.644Z,0.80
2023-06-04T15:49:17.967Z,0.80
2023-06-04T15:54:14.397Z,0.73
2023-06-04T15:59:10.912Z,0.65
2023-06-04T16:04:07.412Z,0.90
2023-06-04T16:09:04.487Z,1.00
2023-06-04T16:14:00.833Z,0.88
2023-06-04T16:18:57.239Z,1.00
2023-06-04T16:23:53.992Z,0.80
2023-06-04T16:28:50.417Z,0.68
2023-06-04T16:33:46.949Z,0.90
2023-06-04T16:38:43.479Z,1.05
2023-06-04T16:43:39.811Z,0.60
2023-06-04T16:48:39.069Z,0.87
2023-06-04T16:53:35.916Z,0.85
2023-06-04T16:58:34.541Z,0.98
2023-06-04T17:03:31.137Z,0.98
2023-06-04T17:08:27.588Z,0.90
2023-06-04T17:13:23.996Z,0.80
2023-06-04T17:18:21.672Z,0.90
2023-06-04T17:23:26.532Z,1.08
2023-06-04T17:28:23.264Z,1.23
2023-06-04T17:33:19.750Z,0.90
2023-06-04T17:38:16.467Z,0.80
2023-06-04T17:48:09.420Z,0.80
2023-06-04T17:53:05.977Z,1.17
2023-06-04T17:58:02.388Z,0.82
2023-06-04T18:02:58.756Z,0.95
2023-06-04T18:07:55.151Z,0.73
2023-06-04T18:12:51.617Z,0.90
2023-06-04T18:17:48.055Z,0.85
2023-06-04T18:22:44.543Z,0.70
2023-06-04T18:32:37.759Z,0.82
2023-06-04T18:37:34.123Z,0.80
2023-06-04T18:42:31.589Z,0.80
2023-06-04T18:47:28.264Z,0.98
2023-06-04T18:52:24.773Z,1.00
2023-06-04T18:57:21.851Z,0.90
2023-06-04T19:07:14.913Z,0.80
2023-06-04T19:12:11.381Z,0.80
2023-06-04T19:17:08.245Z,1.43
2023-06-04T19:22:04.800Z,0.90
2023-06-04T19:27:01.134Z,0.82
2023-06-04T19:31:57.611Z,0.82
2023-06-04T19:36:54.443Z,1.83
2023-06-04T19:41:50.907Z,0.93
2023-06-04T19:46:49.490Z,1.00
2023-06-04T19:51:46.192Z,0.95
2023-06-04T19:56:42.756Z,1.55
2023-06-04T20:01:39.151Z,1.67
2023-06-04T20:06:35.869Z,1.80
2023-06-04T20:11:33.253Z,1.40
2023-06-04T20:16:30.702Z,1.70
2023-06-04T20:21:33.424Z,1.60
2023-06-04T20:26:33.749Z,1.30
2023-06-04T20:36:28.661Z,2.20
2023-06-04T20:41:25.615Z,1.95
2023-06-04T20:46:22.327Z,1.70
2023-06-04T20:51:18.780Z,1.63
2023-06-04T20:56:15.724Z,1.30
2023-06-04T21:01:15.132Z,1.35
2023-06-04T21:06:11.618Z,1.70
2023-06-04T21:11:08.298Z,1.25
2023-06-04T21:16:04.858Z,1.50
2023-06-04T21:21:01.243Z,2.47
2023-06-04T21:25:57.887Z,1.70
2023-06-04T21:30:54.215Z,1.50
2023-06-04T21:35:50.565Z,1.70
2023-06-04T21:40:47.002Z,1.35
2023-06-04T21:45:43.505Z,1.85
2023-06-04T21:50:39.885Z,1.60
2023-06-04T21:55:36.713Z,1.40
2023-06-04T22:00:33.210Z,1.50
2023-06-04T22:05:29.577Z,1.45
2023-06-04T22:10:26.020Z,1.80
2023-06-04T22:15:22.346Z,1.75
2023-06-04T22:20:18.819Z,1.45
2023-06-04T22:25:15.414Z,1.80
2023-06-04T22:30:12.145Z,2.03
2023-06-04T22:35:08.491Z,1.77
2023-06-04T22:40:05.371Z,1.58
2023-06-04T22:45:01.792Z,1.85
2023-06-04T22:49:58.156Z,1.48
2023-06-04T22:54:55.042Z,1.40
2023-06-04T22:59:52.742Z,2.08
2023-06-04T23:04:49.208Z,1.95
2023-06-04T23:09:45.605Z,1.88
2023-06-04T23:14:41.979Z,2.17
2023-06-04T23:19:38.366Z,2.08
2023-06-04T23:24:34.693Z,1.70
2023-06-04T23:29:31.987Z,2.00
2023-06-04T23:34:28.326Z,1.70
2023-06-04T23:39:24.708Z,1.88
2023-06-04T23:44:21.104Z,1.90
2023-06-04T23:49:17.485Z,2.20
2023-06-04T23:54:18.537Z,2.65
2023-06-04T23:59:14.962Z,2.40
